Date,TemperatureHighF,TemperatureAvgF,TemperatureLowF,DewpointHighF,DewpointAvgF,DewpointLowF,HumidityHigh,HumidityAvg,HumidityLow,PressureMaxIn,PressureMinIn,WindSpeedMaxMPH,WindSpeedAvgMPH,GustSpeedMaxMPH,PrecipitationSumIn
2013-1-1,26.4,14.9,5.4,11.3,6.7,-0.2,90,71,44,30.16,29.97,11,4,11,0.00
2013-1-2,40.1,23.6,10.9,30.5,20.4,9.8,97,88,64,30.07,29.90,11,4,14,0.00
2013-1-3,31.5,24.5,15.3,28.9,19.9,13.9,95,83,56,30.26,30.06,17,5,17,0.00
2013-1-4,44.8,24.1,13.6,26.3,18.2,12.8,99,81,46,30.17,29.98,10,4,12,0.00
2013-1-5,38.7,26.1,18.7,30.5,21.2,15.2,99,82,59,30.06,29.83,19,6,24,0.15
2013-1-6,45.9,27.5,14.4,27.1,20.5,12.8,94,76,46,30.17,29.98,17,5,17,0.00
2013-1-7,44.2,32.2,24.8,30.8,26.5,21.7,98,80,58,29.98,29.80,15,3,17,0.00
2013-1-8,47.1,35.0,25.5,34.6,30.1,25.2,99,83,60,29.98,29.69,16,6,19,0.00
2013-1-9,49.1,36.5,27.5,34.9,31.6,26.8,99,82,57,30.27,29.97,8,2,8,0.00
2013-1-10,41.2,37.2,33.4,38.8,31.0,25.5,99,79,62,30.18,29.56,5,2,8,0.07
2013-1-11,57.9,43.0,28.9,51.6,41.7,22.7,99,95,77,29.60,29.26,16,6,29,0.19
2013-1-12,28.9,20.4,11.5,19.6,9.2,3.1,74,61,45,29.99,29.59,30,10,30,1.37
2013-1-13,26.1,15.0,7.5,6.4,3.5,0.8,76,61,36,30.19,29.97,16,6,17,0.00
2013-1-14,34.9,19.0,7.3,15.1,9.3,4.1,92,68,38,30.30,30.18,12,3,12,0.00
2013-1-15,18.3,16.9,15.8,11.0,10.4,10.1,80,75,72,30.20,30.17,4,2,4,0.00
2013-1-16,53.4,37.6,21.9,36.2,28.8,17.8,96,72,52,30.14,29.78,14,6,14,0.00
2013-1-17,38.3,30.5,23.7,32.3,28.4,23.5,99,93,72,30.28,30.14,8,3,8,0.00
2013-1-18,57.0,40.4,27.9,36.8,32.1,27.6,99,75,45,30.14,29.74,18,6,21,0.02
2013-1-19,58.8,40.4,22.5,35.3,28.8,11.6,97,66,40,30.19,29.71,21,8,23,0.08
2013-1-20,22.5,17.6,14.0,12.9,8.3,4.3,82,67,48,30.25,30.16,14,4,14,0.00
2013-1-21,15.8,10.9,5.5,9.3,-2.7,-9.7,78,54,40,30.30,30.19,20,6,24,0.00
2013-1-22,26.6,14.4,8.8,10.9,6.4,-2.7,88,71,48,30.23,30.10,6,2,8,0.00
2013-1-23,34.9,20.1,9.7,19.0,10.6,-0.8,86,67,50,30.35,30.01,16,6,18,0.00
2013-1-24,19.4,11.2,1.6,6.5,-1.2,-7.6,68,57,46,30.40,30.03,12,5,12,0.00
2013-1-25,52.9,30.8,14.0,29.9,18.2,5.6,80,61,39,30.10,29.96,14,4,14,0.00
2013-1-26,51.3,31.1,15.4,29.5,20.4,9.5,85,66,43,30.11,29.87,14,4,14,0.00
2013-1-27,42.3,38.8,34.3,42.0,37.0,24.6,99,94,59,29.87,29.54,11,3,13,0.26
2013-1-28,46.9,40.1,33.6,46.7,39.8,33.4,99,99,99,29.73,29.41,5,2,7,0.01
2013-1-29,42.1,34.5,30.9,41.8,34.1,30.7,99,98,93,29.55,29.39,17,6,23,0.01
2013-1-30,30.6,23.5,15.8,30.3,18.6,8.7,99,82,56,29.79,29.48,22,10,27,0.00
2013-1-31,15.8,8.6,0.5,8.6,-1.8,-8.0,78,62,46,30.27,29.78,24,10,28,0.30
2013-2-1,26.8,13.8,-2.2,19.5,6.1,-8.6,81,71,55,30.27,29.91,17,6,24,0.01
2013-2-2,39.0,29.8,23.2,32.7,24.6,19.0,99,81,63,30.05,29.89,18,4,18,0.00
2013-2-3,44.6,34.3,23.2,31.0,25.0,15.6,86,69,52,30.06,29.64,18,7,21,0.00
2013-2-4,36.3,28.3,23.5,31.9,24.3,20.3,97,85,68,29.87,29.61,13,5,21,0.00
2013-2-5,56.8,38.2,25.7,36.3,29.4,25.2,99,75,39,29.91,29.69,16,5,19,0.00
2013-2-6,48.0,35.5,29.8,38.4,31.3,27.4,96,85,68,29.93,29.79,8,3,12,0.00
2013-2-7,38.1,32.5,26.2,34.9,28.8,25.0,96,86,80,30.13,29.77,11,6,11,0.00
2013-2-8,35.2,29.4,26.1,28.9,27.2,24.8,99,92,77,30.18,30.01,8,4,8,0.00
2013-2-9,54.9,39.5,29.5,41.7,35.0,29.2,99,85,61,29.97,29.54,16,8,16,0.01
2013-2-10,47.1,36.6,31.1,46.3,31.8,23.5,99,83,70,29.65,29.14,31,16,36,2.72
2013-2-11,39.6,31.7,25.3,26.1,23.6,21.9,89,72,56,30.01,29.65,21,9,37,0.91
2013-2-12,50.9,34.7,20.3,28.3,24.2,20.1,99,70,38,30.00,29.74,18,5,20,0.00
2013-2-13,30.9,30.0,28.4,24.4,23.6,22.2,81,77,75,29.76,29.73,5,3,6,0.00
2013-2-14,45.1,39.6,29.8,32.5,29.5,22.2,88,68,44,30.03,29.62,15,8,15,0.04
2013-2-15,35.8,25.1,17.1,25.1,16.1,11.1,99,70,44,30.20,30.10,14,7,14,0.00
2013-2-16,31.6,23.3,12.9,25.4,18.8,12.2,97,83,71,30.17,29.89,7,4,7,0.01
2013-2-17,59.0,38.5,24.1,37.7,28.5,20.8,89,70,45,29.87,29.46,16,4,16,0.01
2013-2-18,44.1,35.2,24.1,34.9,27.4,14.4,87,73,61,29.84,29.41,25,12,25,1.98
2013-2-19,30.7,20.0,9.5,14.1,1.0,-3.4,72,45,25,30.22,29.89,21,9,23,0.19
2013-2-20,26.4,16.1,3.7,7.7,2.7,-2.9,73,56,40,30.23,30.06,10,5,12,0.00
2013-2-21,24.8,21.9,20.8,22.4,16.2,7.2,99,81,53,30.09,29.68,16,8,17,0.00
2013-2-22,30.0,21.4,13.1,21.2,17.2,10.3,99,85,57,29.88,29.67,14,6,19,0.01
2013-2-23,41.5,21.7,5.0,28.7,16.6,3.5,96,82,58,29.86,29.69,11,4,14,0.00
2013-2-24,51.8,32.3,18.3,31.0,25.6,18.1,99,79,42,29.91,29.75,8,3,13,0.00
2013-2-25,36.9,30.9,27.1,30.0,27.9,26.0,99,89,71,29.93,29.76,11,6,15,0.00
2013-2-26,32.9,29.7,26.8,32.5,29.1,26.6,99,97,90,29.76,29.62,17,8,19,0.00
2013-2-27,42.4,31.9,25.9,28.1,25.2,21.7,95,78,50,29.93,29.72,24,11,24,0.06
2013-2-28,34.3,29.2,25.9,26.1,23.9,21.2,87,80,69,30.07,29.93,16,8,20,0.00
2013-3-1,31.3,26.7,23.9,22.7,19.6,16.3,88,74,59,30.20,30.05,14,6,20,0.00
2013-3-2,37.9,28.7,20.7,25.0,19.6,15.2,87,69,49,30.19,29.96,8,3,10,0.00
2013-3-3,44.4,33.2,25.0,32.2,26.9,22.7,93,78,61,29.96,29.61,11,4,12,0.00
2013-3-4,36.9,35.7,34.2,31.7,30.9,30.2,90,82,80,29.87,29.78,11,6,14,0.00
2013-3-5,34.0,28.5,24.6,31.4,19.3,15.3,90,68,58,30.22,29.85,32,12,37,1.69
2013-3-6,46.0,31.2,22.1,26.3,21.0,16.5,85,67,43,30.26,30.10,18,4,18,0.00
2013-3-7,55.9,36.1,23.2,35.5,27.1,20.4,90,72,44,30.13,29.95,11,4,13,0.00
2013-3-8,57.6,42.5,30.9,42.5,34.7,27.0,99,75,52,30.03,29.76,10,4,14,0.13
2013-3-9,53.6,46.1,36.5,53.3,45.8,36.2,99,99,95,29.76,29.41,24,5,29,0.15
2013-3-10,36.3,29.4,23.2,36.1,29.1,23.0,99,99,99,29.77,29.52,23,9,27,0.17
2013-3-11,37.0,26.7,21.6,23.4,20.9,17.8,99,80,50,29.84,29.72,14,7,18,0.01
2013-3-12,37.6,30.2,21.7,26.1,22.8,18.3,97,74,60,30.17,29.85,21,9,33,0.22
2013-3-13,45.0,30.1,18.9,24.7,20.3,15.9,89,68,41,30.29,30.09,11,3,14,0.00
2013-3-14,34.0,32.0,30.6,26.3,25.3,24.6,79,76,72,30.09,30.00,11,4,11,0.00
2013-3-18,48.0,38.5,32.5,35.0,31.4,23.8,99,78,49,29.89,29.59,14,5,14,0.07
2013-3-19,40.1,31.8,21.7,21.4,16.4,14.1,76,54,40,30.03,29.68,17,6,17,3.65
2013-3-20,53.1,32.2,17.4,25.0,12.7,2.4,62,46,28,30.23,29.97,15,9,15,0.00
2013-3-21,38.1,27.8,20.7,18.1,13.2,9.7,74,55,31,30.00,29.77,5,3,5,0.00
2013-3-22,35.8,31.1,25.7,21.0,19.1,17.2,77,62,48,29.87,29.83,4,3,4,0.00
2013-3-23,37.4,31.5,28.4,32.1,27.3,23.5,99,85,61,29.93,29.87,10,5,10,0.00
2013-3-24,30.6,27.0,25.2,27.3,23.5,19.5,99,87,67,29.91,29.86,12,9,17,0.02
2013-3-25,32.5,27.8,24.4,27.2,23.8,20.6,99,86,65,30.18,29.92,17,8,19,0.00
2013-3-26,48.2,31.2,17.8,26.5,20.2,15.1,90,66,40,30.22,30.07,11,3,12,0.00
2013-3-27,59.5,40.1,25.2,35.2,27.7,21.6,86,64,37,30.13,30.02,9,3,11,0.00
2013-3-28,64.9,46.7,30.7,38.6,33.0,29.2,97,63,34,30.10,29.98,8,2,10,0.00
2013-3-29,73.9,54.1,35.2,43.7,37.2,33.4,95,58,27,30.07,29.88,14,4,15,0.00
2013-3-30,72.9,57.6,46.8,58.6,46.3,35.8,99,70,34,29.93,29.74,16,5,17,0.30
2013-3-31,63.1,50.2,33.1,44.7,35.3,25.1,99,63,25,29.98,29.78,22,8,23,0.09
2013-4-1,33.1,30.8,28.2,32.8,30.2,26.5,99,98,93,30.04,29.98,12,7,16,0.00
2013-4-2,45.5,34.1,23.5,25.0,19.7,14.6,85,58,31,30.18,30.09,5,3,5,0.01
2013-4-3,56.5,40.7,30.0,27.5,24.0,22.2,74,54,31,30.20,30.09,7,3,7,0.00
2013-4-4,70.0,49.3,32.9,43.6,32.1,25.2,83,54,35,30.08,29.89,11,4,11,0.00
2013-4-5,69.1,57.6,34.9,45.0,40.2,32.0,89,54,40,30.01,29.57,12,8,16,0.00
2013-4-6,74.3,61.3,52.7,49.9,44.5,40.5,75,56,35,29.63,29.44,21,8,29,0.00
2013-4-7,77.9,59.6,45.0,56.6,45.9,40.6,99,63,36,29.72,29.48,17,4,28,0.21
2013-4-8,72.5,60.0,48.6,65.1,58.4,48.3,99,95,74,29.57,29.47,17,4,23,0.06
2013-4-9,64.0,48.7,35.8,63.8,48.4,35.5,99,99,99,29.79,29.45,17,8,26,0.65
2013-4-10,38.8,36.8,33.4,38.6,36.6,33.2,99,99,99,29.80,29.63,14,6,18,0.60
2013-4-11,33.4,32.8,32.4,33.2,32.5,32.1,99,99,99,29.64,29.59,14,8,15,0.01
2013-4-12,43.3,37.7,33.3,33.2,31.8,29.8,97,80,61,29.79,29.59,17,10,18,0.00
2013-4-13,55.4,42.8,29.8,42.6,35.3,27.7,96,76,60,29.86,29.57,7,3,7,0.00
2013-4-14,70.5,55.4,44.4,57.5,46.7,34.3,98,74,46,29.53,29.19,24,9,40,0.20
2013-4-15,48.2,41.9,36.5,34.3,30.2,24.1,76,63,51,29.94,29.53,15,6,17,0.00
2013-4-16,55.0,41.9,35.8,32.9,30.9,29.0,82,67,40,30.09,29.90,14,6,14,0.00
2013-4-17,43.3,41.4,37.8,43.1,41.1,37.5,99,99,99,29.93,29.62,13,6,13,0.84
2013-4-18,37.6,34.7,32.0,36.6,32.4,29.5,99,92,83,29.75,29.54,26,14,29,1.03
2013-4-19,50.4,38.9,29.7,29.7,24.3,22.2,86,58,34,29.96,29.70,20,10,30,0.40
2013-4-20,50.7,38.9,26.2,33.1,25.5,21.1,91,61,37,30.11,29.95,8,3,10,0.00
2013-4-21,69.6,55.6,43.9,53.9,42.4,32.2,99,63,42,29.99,29.83,27,8,30,0.69
2013-4-22,55.4,46.0,33.4,55.1,45.8,33.2,99,99,99,30.03,29.78,24,5,24,0.92
2013-4-23,43.3,35.0,29.3,33.2,27.3,22.5,99,75,52,30.10,29.98,20,8,22,0.04
2013-4-24,62.1,42.2,25.9,42.0,29.2,22.5,91,65,28,30.05,29.87,26,8,28,0.12
2013-4-25,42.6,36.2,32.0,34.2,32.6,30.9,98,87,72,30.10,30.04,4,2,8,0.00
2013-4-26,73.0,59.2,50.2,54.4,47.6,40.0,89,66,52,30.02,29.89,14,7,14,0.00
2013-4-27,73.8,56.9,46.2,55.9,51.2,46.0,99,84,53,30.03,29.80,7,3,7,0.00
2013-4-28,81.7,63.6,45.3,58.8,53.2,45.1,99,74,40,29.81,29.54,14,6,14,0.00
2013-4-29,88.7,72.7,58.6,63.2,59.9,54.8,99,66,35,29.59,29.37,11,4,11,0.00
2013-4-30,81.7,72.3,60.4,63.2,55.8,49.0,77,57,44,29.73,29.36,17,8,18,0.00
2013-5-1,60.4,44.0,33.4,51.1,40.2,33.2,99,87,63,30.24,29.73,23,11,25,1.56
2013-5-2,50.9,40.9,32.5,35.0,32.4,28.4,99,74,49,30.35,30.22,24,8,27,0.46
2013-5-3,46.0,40.7,34.0,36.5,31.0,28.4,90,68,56,30.22,29.88,17,8,22,0.00
2013-5-4,45.5,40.5,35.4,44.8,39.6,34.5,99,97,85,29.98,29.81,18,9,23,0.12
2013-5-5,55.9,48.2,42.1,52.4,47.0,41.8,99,96,86,30.01,29.94,10,4,12,0.04
2013-5-6,75.9,57.6,48.4,58.2,52.8,36.6,99,86,24,29.99,29.87,7,3,9,0.00
2013-5-7,79.9,63.9,46.4,60.4,55.3,46.1,99,77,49,29.93,29.79,11,2,12,0.00
2013-5-8,73.6,64.9,57.7,63.1,60.3,55.7,99,86,67,29.82,29.74,14,3,14,0.01
2013-5-9,76.5,62.0,56.7,64.0,59.9,56.4,99,94,63,29.83,29.70,18,4,18,0.47
2013-5-10,77.0,60.9,50.9,58.4,52.1,48.5,99,76,42,29.94,29.83,11,5,14,0.00
2013-5-11,66.0,57.5,46.9,51.0,34.2,24.3,95,45,24,30.10,29.87,18,7,23,0.04
2013-5-12,74.8,54.6,35.4,36.4,31.0,25.0,79,45,22,30.14,29.96,8,2,9,0.00
2013-5-13,85.6,67.3,48.0,55.8,46.7,31.6,73,49,32,29.97,29.70,21,6,21,0.00
2013-5-14,92.3,67.7,60.8,68.0,60.1,55.8,93,78,45,29.70,29.58,9,3,11,0.00
2013-5-15,101.7,83.2,64.6,63.5,53.9,48.0,56,38,26,29.77,29.49,17,5,17,0.11
2013-5-16,88.2,74.2,63.0,70.9,61.1,48.6,79,65,42,29.72,29.60,12,3,12,0.00
2013-5-17,92.3,76.7,64.9,70.6,66.4,62.9,99,73,46,29.75,29.66,14,4,14,0.00
2013-5-18,90.9,76.9,62.6,74.1,68.8,62.3,99,78,54,29.75,29.54,14,4,19,0.00
2013-5-19,83.3,67.1,61.2,74.1,65.6,60.9,99,95,72,29.69,29.32,16,4,19,0.73
2013-5-20,81.5,68.2,57.6,65.3,60.1,54.6,99,77,54,29.52,29.36,23,8,24,0.00
2013-5-21,64.9,60.9,55.8,61.8,54.8,50.5,99,81,62,29.58,29.46,19,8,20,0.00
2013-5-22,63.0,56.9,52.5,58.3,53.6,52.0,99,89,72,29.82,29.57,18,7,18,0.00
2013-5-23,81.9,63.7,52.3,57.2,52.5,47.0,99,72,34,30.09,29.82,9,4,13,0.00
2013-5-24,79.0,64.8,50.9,57.3,51.8,46.4,85,64,46,30.14,29.88,17,5,21,0.00
2013-5-25,88.3,70.1,57.9,77.1,64.1,49.8,99,83,59,29.97,29.80,14,4,18,0.32
2013-5-26,89.2,72.4,63.1,78.3,70.1,62.9,99,93,69,29.86,29.68,9,3,14,0.00
2013-5-27,83.7,69.5,59.7,73.0,66.6,59.5,99,91,66,29.75,29.42,21,4,27,1.78
2013-5-28,88.5,73.2,62.4,74.3,68.4,62.2,99,87,56,29.58,29.46,8,2,9,0.00
2013-5-29,77.5,69.1,63.0,77.3,68.8,62.7,99,99,90,29.59,29.40,15,5,26,1.05
2013-5-30,77.9,66.8,59.5,71.7,64.9,59.3,99,94,74,29.49,29.37,21,7,21,0.51
2013-5-31,83.7,69.9,57.0,61.2,57.6,51.6,99,68,40,29.57,29.47,14,5,21,0.00
2013-6-1,65.8,59.8,55.4,59.7,55.1,50.6,99,85,62,29.87,29.52,16,8,22,0.07
2013-6-2,77.0,61.6,52.7,55.2,51.3,48.4,99,72,43,29.97,29.85,12,3,12,0.00
2013-6-3,81.1,64.9,49.1,59.3,54.8,48.8,99,74,44,29.90,29.68,16,4,16,0.00
2013-6-4,74.5,66.5,58.6,71.5,64.6,58.4,99,94,80,29.83,29.73,5,2,11,0.44
2013-6-5,82.9,67.5,58.8,64.9,58.6,52.0,99,76,45,29.89,29.79,11,3,14,0.11
2013-6-6,78.1,66.7,57.2,62.5,56.7,52.2,95,72,50,29.85,29.80,9,3,11,0.00
2013-6-7,83.3,66.0,53.2,59.7,56.2,53.0,99,74,42,29.90,29.75,6,2,6,0.00
2013-6-8,72.0,62.8,56.7,70.9,60.7,54.4,99,93,75,29.76,29.53,11,3,17,0.98
2013-6-9,74.1,64.1,60.4,69.3,63.0,60.2,99,96,77,29.68,29.56,15,5,19,0.28
2013-6-10,89.2,69.8,58.6,75.1,66.2,58.4,99,90,60,29.76,29.63,8,2,9,0.00
2013-6-11,98.4,78.1,67.8,81.9,73.8,67.6,99,88,55,29.69,29.56,7,2,10,0.00
2013-6-12,79.5,77.9,76.3,73.2,72.6,71.3,90,84,76,29.58,29.53,10,5,12,0.00
2013-6-13,85.5,70.4,60.6,66.5,63.2,59.0,99,80,47,29.94,29.81,4,2,4,0.01
2013-6-14,89.8,71.2,65.1,78.2,68.9,64.8,99,93,69,29.87,29.66,11,4,11,0.06
2013-6-15,88.9,75.3,66.4,77.3,71.3,66.1,99,89,58,29.80,29.68,17,4,23,0.04
2013-6-16,96.3,79.3,68.0,78.9,70.9,63.3,99,79,44,29.83,29.78,6,2,8,0.00
2013-6-17,97.9,80.8,65.7,71.4,67.1,61.1,99,67,38,29.86,29.78,9,2,12,0.00
2013-6-18,96.1,75.1,63.7,73.4,65.2,60.0,99,75,37,29.93,29.81,5,1,7,0.26
2013-6-19,92.1,77.3,64.6,76.2,69.8,64.3,99,80,54,29.86,29.75,14,4,17,0.00
2013-6-20,94.5,81.7,69.4,83.2,76.7,69.2,99,86,65,29.81,29.67,18,7,26,0.00
2013-6-21,98.8,86.5,78.4,85.3,80.4,78.2,99,83,62,29.73,29.63,20,8,22,0.00
2013-6-22,94.8,84.4,73.6,81.9,74.7,66.5,93,73,60,29.85,29.64,17,6,24,0.01
2013-6-23,89.4,76.6,65.7,79.5,73.7,65.4,99,91,71,29.78,29.61,20,4,23,0.40
2013-6-24,76.3,74.1,72.7,76.0,73.9,72.4,99,99,99,29.78,29.70,4,1,5,0.13
2013-6-28,91.6,81.3,72.3,78.2,70.4,65.9,99,73,43,29.82,29.75,8,3,8,0.00
2013-6-29,83.5,76.7,67.8,67.5,62.7,59.9,78,63,49,29.76,29.73,9,6,9,0.01
2013-6-30,86.0,73.3,62.6,64.0,61.4,57.5,99,70,44,29.91,29.77,5,2,5,0.00
2013-7-1,90.5,73.6,59.9,62.2,59.2,56.2,90,64,38,30.03,29.94,7,2,7,0.00
2013-7-2,88.3,73.5,61.9,66.6,62.5,57.3,99,72,44,30.00,29.89,4,1,4,0.02
2013-7-3,90.0,74.6,59.9,71.8,64.9,59.6,99,75,47,29.91,29.80,6,1,6,0.01
2013-7-4,90.1,84.0,60.6,71.6,67.7,60.3,99,60,46,29.85,29.78,12,7,14,0.00
2013-7-5,88.7,77.9,67.8,74.0,69.5,63.3,89,76,62,29.78,29.70,11,4,11,0.00
2013-7-6,89.8,80.1,69.6,77.4,72.8,68.1,95,80,63,29.73,29.67,14,7,14,0.00
2013-7-7,97.0,85.3,74.7,79.3,75.2,69.5,89,74,56,29.76,29.67,8,4,8,0.00
2013-7-8,91.4,84.1,78.8,81.7,78.4,73.4,99,83,72,29.82,29.75,4,2,4,0.00
2013-7-9,103.1,90.1,76.5,87.7,82.8,76.2,99,80,60,29.80,29.72,9,3,13,0.02
2013-7-10,81.9,79.4,77.0,79.9,77.5,75.5,95,94,93,29.86,29.80,5,3,10,0.00
2013-7-12,92.7,81.3,69.3,79.5,72.7,67.2,95,76,65,29.86,29.78,10,5,10,0.00
2013-7-13,88.9,79.8,70.5,82.7,74.6,67.9,92,84,74,29.87,29.78,8,4,8,0.00
2013-7-14,92.8,80.5,68.7,73.7,70.3,67.8,97,73,54,30.01,29.88,7,3,7,0.01
2013-7-15,94.6,81.8,67.3,80.1,75.4,67.0,99,83,61,30.04,29.96,3,1,3,0.00
2013-7-16,96.3,82.8,70.0,79.1,75.7,69.7,99,82,57,30.10,30.03,5,2,5,0.00
2013-7-17,95.7,85.3,74.1,80.7,78.0,73.8,99,81,60,30.14,30.02,10,4,10,0.00
2013-7-18,98.1,91.0,74.3,78.8,77.2,74.0,99,65,52,30.00,29.78,25,7,25,0.00
2013-7-19,105.8,86.5,75.7,81.7,74.7,68.8,92,70,40,29.80,29.72,8,3,9,0.00
2013-7-20,96.6,80.5,68.7,73.7,69.4,65.4,93,71,42,29.85,29.70,6,2,10,0.00
2013-7-21,96.4,80.1,70.5,84.6,76.5,69.0,99,90,64,29.78,29.62,10,2,14,0.15
2013-7-22,101.1,83.0,70.2,85.9,78.1,69.9,99,86,59,29.70,29.58,9,3,10,0.01
2013-7-23,92.3,76.7,67.3,75.0,70.2,66.5,99,82,55,29.88,29.68,10,3,12,0.02
2013-7-24,92.3,75.4,61.2,72.2,67.4,60.9,99,79,49,29.93,29.83,7,2,8,0.00
2013-7-25,83.3,74.6,68.0,76.4,71.0,67.7,99,89,68,29.90,29.83,17,4,19,0.01
2013-7-26,84.7,73.7,63.9,71.3,64.7,57.6,99,76,46,29.95,29.81,12,3,14,0.00
2013-7-27,83.3,67.8,55.0,58.6,55.1,50.9,99,67,39,29.98,29.85,8,2,12,0.00
2013-7-28,87.1,68.1,51.1,60.0,54.9,50.8,99,67,37,29.93,29.85,6,2,9,0.00
2013-7-29,68.9,64.2,59.5,68.6,61.5,53.5,99,92,68,29.92,29.84,6,1,8,0.07
2013-7-30,79.5,71.3,64.9,74.7,69.9,64.7,99,95,85,29.95,29.86,5,2,10,0.01
2013-7-31,92.1,76.2,63.5,76.3,70.9,63.2,99,85,56,29.99,29.88,4,1,7,0.00
2013-8-1,90.1,74.8,64.9,76.7,70.6,64.7,99,88,50,29.95,29.72,18,4,23,0.34
2013-8-2,94.3,77.5,66.9,79.4,72.8,66.7,99,87,59,29.86,29.70,15,3,16,0.00
2013-8-3,86.5,73.5,64.6,70.6,65.7,62.7,99,78,56,30.02,29.87,7,2,9,0.00
2013-8-4,86.2,72.9,61.9,74.1,67.0,61.0,99,83,62,30.03,29.87,8,2,13,0.00
2013-8-5,91.2,76.1,69.1,82.7,74.8,68.8,99,96,75,29.88,29.69,9,3,14,0.00
2013-8-6,95.2,80.4,69.8,83.5,76.6,69.5,99,89,69,29.79,29.65,11,2,15,0.02
2013-8-7,93.2,83.1,71.4,78.4,72.0,68.6,99,72,48,29.85,29.67,8,2,10,0.00
2013-8-8,85.5,72.9,64.9,73.8,69.5,64.7,99,90,67,29.88,29.80,6,1,6,0.00
2013-8-9,88.2,74.7,63.3,77.8,69.1,63.1,99,85,53,29.99,29.86,7,1,8,0.06
2013-8-10,88.2,73.1,59.4,71.9,66.1,59.1,99,81,57,30.06,29.92,11,3,12,0.00
2013-8-11,91.4,77.5,65.7,77.1,72.2,65.4,99,85,61,29.97,29.83,12,4,14,0.00
2013-8-12,94.1,79.5,70.7,78.3,72.0,66.5,99,81,46,29.92,29.83,5,2,24,0.00
2013-8-13,88.9,73.9,63.3,69.0,64.7,61.4,99,75,46,30.02,29.92,5,2,7,0.04
2013-8-14,66.2,63.9,61.3,61.2,60.5,59.8,96,89,83,30.02,30.00,3,1,4,0.00
2013-8-15,67.5,63.3,59.9,67.2,62.9,59.6,99,99,96,29.95,29.89,8,3,8,0.84
2013-8-16,84.7,70.0,62.2,68.7,64.6,62.0,99,85,57,30.03,29.94,11,2,11,0.01
2013-8-17,87.3,71.6,61.7,68.6,64.4,61.1,99,80,51,30.04,29.96,8,2,13,0.00
2013-8-18,85.8,70.7,57.0,71.4,65.0,56.8,99,84,58,30.01,29.89,11,2,14,0.00
2013-8-19,89.4,75.6,64.2,78.0,71.6,64.0,99,89,68,29.93,29.78,21,5,21,0.00
2013-8-20,93.2,80.1,68.4,80.4,75.4,68.1,99,87,64,29.83,29.75,17,6,19,0.06
2013-8-21,97.7,81.9,69.6,83.6,77.0,69.4,99,86,61,29.85,29.78,15,5,17,0.02
2013-8-22,90.7,79.3,71.4,79.2,75.5,71.2,99,89,66,29.95,29.82,8,2,11,0.15
2013-8-23,95.4,80.6,69.8,82.6,76.0,69.5,99,87,61,29.93,29.82,14,2,14,0.01
2013-8-24,95.0,82.3,74.3,85.1,79.0,74.1,99,90,70,29.92,29.84,14,6,18,0.00
2013-8-25,99.1,84.0,71.6,84.9,79.6,71.3,99,88,62,29.97,29.88,15,6,17,0.00
2013-8-26,100.0,85.3,72.0,83.2,78.7,71.7,99,82,58,29.93,29.80,14,6,17,0.00
2013-8-27,100.4,85.8,74.1,83.0,77.7,73.6,99,79,54,29.81,29.74,17,6,17,0.00
2013-8-28,101.5,83.2,69.6,80.9,75.1,69.4,99,79,45,29.85,29.78,8,3,11,0.00
2013-8-29,77.2,73.9,72.5,76.9,73.6,72.2,99,99,97,29.85,29.83,4,1,8,0.00
2013-8-30,106.7,88.5,73.6,88.5,83.6,73.3,99,87,53,29.75,29.67,5,2,8,0.00
2013-8-31,101.7,83.7,72.9,84.4,78.7,72.6,99,87,48,29.74,29.63,6,2,7,0.00
2013-9-1,91.4,79.5,68.2,77.3,70.4,66.2,99,76,51,29.85,29.61,21,4,21,0.97
2013-9-2,89.2,72.1,60.8,68.5,63.4,59.6,99,78,41,29.95,29.84,6,2,8,0.00
2013-9-3,95.2,73.0,57.6,74.8,66.0,57.3,99,82,49,29.96,29.85,7,2,8,0.00
2013-9-4,94.3,76.9,67.6,74.6,70.3,67.3,99,82,50,30.00,29.88,9,2,9,0.00
2013-9-5,91.2,75.5,66.9,78.9,72.4,66.7,99,91,62,30.05,29.93,7,1,11,0.34
2013-9-6,93.7,79.1,67.8,82.6,74.9,67.6,99,88,68,29.95,29.76,13,4,15,0.00
2013-9-7,95.5,80.7,70.5,82.8,76.7,70.3,99,89,60,29.77,29.68,10,3,13,0.00
2013-9-8,101.5,83.8,71.8,87.3,79.4,71.5,99,88,61,29.77,29.63,9,1,9,0.00
2013-9-9,100.6,85.7,73.9,78.7,73.0,68.5,99,70,39,29.71,29.62,21,6,21,0.00
2013-9-10,99.9,80.8,68.7,78.9,72.1,66.9,99,77,47,29.90,29.71,17,4,17,0.18
2013-9-11,76.3,70.5,69.3,76.0,70.3,69.0,99,99,99,29.94,29.89,8,2,10,0.69
2013-9-14,80.8,66.2,53.6,63.2,58.1,51.4,95,76,54,29.93,29.72,11,4,15,0.00
2013-9-15,73.6,65.8,61.2,67.9,63.1,58.8,99,91,74,30.07,29.70,10,3,14,0.58
2013-9-16,77.5,62.9,55.2,64.4,59.4,55.0,99,89,62,30.16,30.03,8,2,8,0.00
2013-9-17,78.4,64.6,57.6,77.0,64.4,57.3,99,99,94,30.04,29.72,11,3,18,0.30
2013-9-18,95.2,78.9,66.4,80.2,73.6,66.1,99,85,59,29.75,29.54,21,7,24,0.00
2013-9-19,91.9,73.7,61.5,78.2,69.9,55.7,99,88,62,29.84,29.57,14,5,21,0.21
2013-9-20,77.9,63.2,52.7,58.0,52.9,48.9,98,72,42,29.93,29.80,12,4,15,0.00
2013-9-21,82.4,62.4,45.7,61.3,53.9,45.4,99,78,44,29.89,29.71,10,2,10,0.00
2013-9-22,84.7,68.1,55.9,67.6,59.7,55.7,99,77,45,29.76,29.65,17,5,20,0.00
2013-9-23,84.2,67.3,54.7,63.6,58.1,54.4,99,75,46,29.70,29.57,17,5,19,0.00
2013-9-24,79.3,67.4,60.1,66.2,62.2,58.4,99,84,64,29.75,29.56,8,2,10,0.00
2013-9-25,87.8,69.1,55.4,69.0,63.0,55.1,99,84,52,29.76,29.59,11,2,12,0.00
2013-9-26,90.9,74.2,61.3,70.3,66.2,61.1,99,79,50,29.68,29.58,21,6,23,0.04
2013-9-27,91.8,77.8,69.4,71.1,68.3,66.7,94,75,49,29.70,29.61,21,8,24,0.00
2013-9-28,77.5,64.9,51.3,68.9,57.6,48.8,99,80,43,29.91,29.52,17,6,24,0.33
2013-9-29,82.0,62.3,46.0,55.0,51.1,45.8,99,72,38,29.91,29.73,18,4,18,0.00
2013-9-30,86.2,66.1,50.7,62.0,56.5,50.5,99,75,42,29.76,29.55,14,5,19,0.00
2013-10-1,91.6,68.1,55.2,65.5,58.4,53.3,99,75,40,29.80,29.62,6,2,8,0.00
2013-10-2,90.0,72.6,58.6,75.0,66.2,54.7,99,82,55,29.81,29.65,12,3,16,0.00
2013-10-3,91.0,71.7,60.4,76.3,68.4,60.2,99,90,59,29.71,29.52,30,3,30,2.11
2013-10-4,88.2,72.8,54.0,81.8,68.0,42.9,99,85,63,29.74,29.47,24,8,25,1.48
2013-10-5,54.0,48.4,42.6,44.8,38.6,36.4,94,69,56,29.81,29.65,19,9,25,0.04
2013-10-6,50.0,46.6,41.7,49.7,46.1,41.3,99,98,81,29.84,29.61,16,6,22,0.18
2013-10-7,81.9,58.6,40.3,52.3,46.7,40.0,99,70,34,29.92,29.83,14,3,17,0.00
2013-10-8,82.2,62.8,48.0,57.5,51.2,47.4,99,70,40,29.86,29.74,17,6,24,0.02
2013-10-9,61.5,57.9,56.1,53.1,52.7,52.0,89,83,71,29.83,29.81,7,4,10,0.00
2013-10-10,84.0,67.7,54.1,64.0,58.8,53.0,96,76,50,29.84,29.66,13,6,13,0.00
2013-10-11,83.3,71.4,56.1,66.3,51.8,47.0,99,53,33,29.74,29.47,19,9,25,0.11
2013-10-12,75.2,57.6,45.7,47.1,42.9,37.9,93,62,29,30.12,29.74,17,4,17,0.00
2013-10-13,80.6,56.1,39.2,47.6,42.9,38.9,99,68,30,30.25,30.12,7,1,8,0.00
2013-10-14,63.9,54.7,49.1,59.1,48.6,38.1,99,81,56,30.14,29.58,17,4,21,1.54
2013-10-15,58.6,49.6,46.2,56.6,45.7,41.6,99,87,75,29.90,29.64,25,9,25,0.02
2013-10-16,69.4,50.1,40.8,45.9,42.0,34.0,98,77,34,29.92,29.81,13,4,15,0.00
2013-10-17,66.6,47.9,35.8,48.6,41.9,35.5,99,82,48,29.89,29.73,17,4,21,0.00
2013-10-18,55.9,43.8,37.0,41.9,36.3,31.4,97,77,47,29.98,29.84,9,3,10,0.00
2013-10-19,68.7,47.2,31.8,44.4,37.9,31.4,99,74,40,29.84,29.66,18,4,22,0.00
2013-10-20,71.4,52.6,43.2,50.3,44.2,38.9,98,76,44,29.85,29.56,14,3,15,0.00
2013-10-21,60.3,44.3,34.2,42.3,38.1,33.9,99,81,50,29.95,29.78,9,3,12,0.00
2013-10-22,52.0,44.5,39.4,46.6,40.5,34.7,99,86,69,29.95,29.69,14,3,16,0.00
2013-10-23,46.8,39.5,33.1,43.6,38.3,32.8,99,96,85,30.03,29.89,8,2,12,0.04
2013-10-24,59.9,41.6,31.8,38.3,32.8,29.8,99,74,36,30.23,30.03,11,3,13,0.00
2013-10-25,63.1,44.0,27.3,40.3,33.3,27.1,99,71,42,30.24,29.90,17,5,19,0.00
2013-10-26,61.3,46.2,33.4,40.5,35.9,30.9,96,69,40,30.05,29.85,14,3,14,0.00
2013-10-27,73.6,48.3,28.6,45.7,36.8,28.3,99,70,36,29.99,29.66,14,4,17,0.00
2013-10-28,57.7,48.0,40.8,43.4,40.1,37.5,89,75,55,30.02,29.77,14,5,14,0.00
2013-10-29,54.5,48.1,42.3,54.2,47.4,42.0,99,98,83,30.02,29.78,7,2,8,0.28
2013-10-30,60.3,52.1,43.7,60.0,51.8,43.4,99,99,99,29.79,29.60,14,2,14,0.30
2013-10-31,61.5,46.5,39.2,52.3,43.1,38.9,99,89,59,29.60,29.35,13,3,18,0.00
2013-11-1,64.9,48.6,39.7,48.0,43.0,38.3,99,83,46,29.82,29.44,23,6,31,0.17
2013-11-2,65.7,48.3,37.6,43.9,39.9,37.1,98,76,41,30.03,29.82,15,4,17,0.00
2013-11-3,57.9,49.1,36.9,42.9,39.4,35.5,97,71,51,29.93,29.60,28,8,33,1.05
2013-11-4,64.2,52.1,41.9,50.0,44.6,40.1,97,77,50,29.97,29.64,15,4,17,0.00
2013-11-5,47.1,42.9,35.2,46.9,41.5,35.0,99,95,86,29.98,29.65,13,5,19,0.91
2013-11-6,48.2,37.6,31.6,39.6,35.3,31.4,99,92,71,30.11,29.86,11,4,16,0.02
2013-11-7,57.9,39.0,28.4,35.5,30.0,24.1,99,75,32,30.22,30.10,14,3,19,0.00
2013-11-8,67.5,49.3,32.2,43.4,37.1,29.2,89,65,38,30.11,29.58,25,6,33,0.19
2013-11-9,67.8,52.4,42.8,42.7,38.6,35.0,80,61,38,30.17,29.75,13,5,15,0.00
2013-11-10,59.5,45.3,30.9,38.7,33.7,29.4,98,66,40,30.24,29.98,9,3,11,0.00
2013-11-11,45.3,33.8,18.9,43.3,27.8,11.4,99,79,60,30.58,29.93,20,7,24,0.00
2013-11-12,38.5,23.4,12.2,13.6,11.1,8.8,87,62,32,30.70,30.39,9,4,13,0.00
2013-11-13,24.4,23.3,21.7,14.0,13.3,12.8,70,65,61,30.40,30.33,9,5,11,0.00
2013-11-14,57.0,42.0,32.2,39.1,31.6,26.4,89,68,48,29.84,29.74,8,3,8,0.00
2013-11-15,60.3,42.5,28.4,43.1,36.8,28.2,99,83,53,29.73,29.51,8,3,8,0.00
2013-11-16,68.9,54.6,46.9,59.5,46.5,37.1,99,78,43,29.46,29.16,16,6,16,0.02
2013-11-17,57.7,46.5,39.2,50.2,39.5,36.2,90,77,57,29.90,29.17,19,6,19,0.18
2013-11-18,68.7,43.8,31.1,42.1,31.8,25.5,99,67,29,30.09,29.90,8,3,11,0.00
2013-11-19,64.4,49.2,34.7,39.4,32.6,27.8,80,55,34,30.03,29.73,24,7,24,0.05
2013-11-20,61.2,47.5,37.8,42.9,37.5,32.1,99,70,50,29.78,29.61,12,5,21,0.00
2013-11-21,38.3,31.5,25.3,38.0,29.9,21.8,99,94,81,30.23,29.78,25,9,25,0.06
2013-11-22,22.3,20.7,19.4,15.1,14.3,13.5,82,76,71,30.44,30.41,4,2,7,0.00
2013-11-23,31.1,19.2,10.6,16.0,8.2,3.8,85,63,39,30.70,30.44,15,5,17,0.00
2013-11-24,32.9,20.8,9.0,17.6,11.9,5.3,92,69,50,30.58,30.05,16,7,18,0.00
2013-11-25,48.9,34.1,25.9,33.8,25.2,15.9,83,70,53,30.05,29.94,15,6,17,0.00
2013-11-26,36.1,28.6,19.2,27.6,17.6,8.3,89,65,39,30.25,30.02,18,7,23,0.00
2013-11-27,35.4,23.8,11.5,17.1,13.2,7.7,87,65,43,30.25,29.88,15,5,18,0.00
2013-11-28,41.9,29.9,21.4,24.0,20.0,15.9,86,68,43,30.32,29.89,14,5,22,0.00
2013-11-29,51.4,29.1,17.8,32.9,21.8,15.6,93,77,48,30.31,30.04,14,3,14,0.00
2013-11-30,61.3,40.1,28.6,38.6,30.7,26.0,90,71,43,30.00,29.89,4,2,4,0.00
2013-12-1,53.1,36.4,28.4,35.1,29.5,26.9,98,77,46,29.99,29.71,4,1,4,0.00
2013-12-2,70.9,46.3,33.1,44.7,36.2,29.3,99,71,37,29.70,29.37,8,2,11,0.00
2013-12-3,43.3,38.9,35.4,40.7,37.6,35.0,99,95,85,29.52,29.34,11,4,14,0.00
2013-12-4,35.2,23.8,16.5,35.0,21.3,9.1,99,90,72,29.90,29.46,20,9,29,0.21
2013-12-5,16.9,12.8,8.1,9.6,3.1,0.5,74,65,52,30.17,29.90,26,10,26,0.17
2013-12-6,18.1,6.8,0.5,-2.1,-4.6,-7.2,76,60,38,30.52,30.21,12,8,12,0.00
2013-12-7,17.1,6.2,-2.7,2.3,-3.0,-7.2,81,66,45,30.57,30.23,11,4,11,0.00
2013-12-8,21.2,15.2,10.6,16.1,11.7,1.4,99,86,60,30.23,29.84,13,4,13,0.00
2013-12-9,17.6,7.2,0.1,9.9,-0.4,-6.2,96,72,48,30.17,29.93,14,6,17,0.00
2013-12-10,32.5,22.8,11.1,26.9,14.6,4.4,99,71,48,30.08,29.90,14,5,18,0.00
2013-12-11,28.2,20.6,4.8,28.0,15.6,-3.4,99,82,41,30.47,30.06,20,11,25,0.00
2013-12-12,37.8,19.1,3.2,24.7,13.2,-0.7,93,78,57,30.30,29.92,8,3,11,0.00
2013-12-13,34.9,25.6,18.0,27.8,22.9,17.4,99,90,71,29.92,29.73,11,4,14,0.00
2013-12-14,22.5,19.4,15.8,19.7,15.4,13.5,98,84,72,30.05,29.92,15,4,15,0.00
2013-12-15,32.0,21.6,15.3,22.6,18.6,14.0,99,88,64,30.01,29.80,6,3,8,0.00
2013-12-16,52.2,27.2,12.7,37.4,21.7,12.1,99,82,54,29.93,29.81,11,4,16,0.00
2013-12-17,45.7,33.6,26.1,30.8,23.5,18.5,99,70,37,30.09,29.84,8,5,8,0.05
2013-12-18,64.6,40.7,26.8,41.0,31.1,22.9,96,71,42,29.76,29.55,9,3,9,0.00
2013-12-19,35.1,30.1,20.7,31.0,27.1,20.4,99,89,76,29.71,29.58,10,8,10,0.00
2013-12-20,18.0,16.6,14.2,17.7,15.2,14.0,99,94,88,29.82,29.72,9,6,9,0.00
2013-12-21,24.8,21.3,18.1,22.6,18.5,15.1,99,89,79,29.73,29.63,13,5,14,0.00
2013-12-22,27.5,18.3,8.6,21.2,13.0,1.7,99,80,57,30.22,29.69,14,7,17,0.00
2013-12-23,19.2,6.8,-2.2,2.0,-4.7,-10.1,80,60,35,30.43,30.22,14,6,20,0.00
2013-12-24,24.6,11.5,-2.7,24.4,7.5,-6.7,99,83,70,30.37,29.98,23,6,25,0.01
2013-12-25,46.6,30.2,20.5,33.3,25.0,20.2,99,83,56,30.14,30.03,20,6,29,0.04
2013-12-26,51.6,32.7,20.3,30.4,25.1,19.6,99,77,43,30.09,29.93,11,3,11,0.00
2013-12-27,64.6,38.4,21.6,39.1,29.5,21.3,99,74,37,30.10,29.91,19,4,19,0.00
2013-12-28,60.6,39.9,17.1,37.4,30.3,9.0,99,72,38,29.95,29.59,30,8,30,0.31
2013-12-29,20.5,10.2,4.5,8.2,-7.2,-14.2,73,47,22,30.22,29.97,28,9,28,0.04
2013-12-30,33.3,17.0,3.9,24.2,4.0,-10.3,81,57,42,30.13,29.89,24,6,26,0.02
2013-12-31,41.7,18.6,8.2,24.5,11.7,5.7,91,75,48,30.11,29.85,15,5,18,0.00
2014-1-1,10.8,7.9,3.4,7.2,4.4,-2.9,92,85,73,30.22,29.97,14,8,20,0.00
2014-1-2,18.7,5.6,-0.9,0.6,-2.9,-6.3,89,69,40,30.29,30.19,10,3,11,0.00